Time;durP1;ratioP1;P1;durP2;ratioP2;P2;SDS_P1;SDS_P2;PMS_P1;PMS_P2;Temp;Humidity;BMP_temperature;BMP_pressure;BME280_temperature;BME280_humidity;BME280_pressure;Samples;Min_cycle;Max_cycle;Signal;HPM_P1;HPM_P2
2024/01/30 00:00:55;;;;;;;9.07;5.65;;;;;;;;;;6151951;23;20044;-79
2024/01/30 00:03:43;;;;;;;8.65;6.07;;;;;;;;;;6173251;23;20028;-79
2024/01/30 00:06:29;;;;;;;11.35;6.35;;;;;;;;;;6152606;23;20021;-79
2024/01/30 00:09:16;;;;;;;7.95;4.40;;;;;;;;;;6152957;23;20024;-79
2024/01/30 00:12:03;;;;;;;9.93;5.38;;;;;;;;;;6171623;23;20017;-79
2024/01/30 00:14:51;;;;;;;11.00;5.80;;;;;;;;;;6152754;23;20021;-79
2024/01/30 00:17:37;;;;;;;13.35;5.57;;;;;;;;;;6172417;23;20030;-79
2024/01/30 00:20:23;;;;;;;11.07;4.85;;;;;;;;;;6152362;23;20028;-79
2024/01/30 00:23:09;;;;;;;12.18;5.30;;;;;;;;;;6174698;23;20021;-78
2024/01/30 00:25:55;;;;;;;9.07;4.97;;;;;;;;;;6174209;23;20349;-79
2024/01/30 00:28:43;;;;;;;9.23;6.00;;;;;;;;;;6194778;23;20027;-79
2024/01/30 00:31:29;;;;;;;10.23;5.43;;;;;;;;;;6151526;23;20017;-79
2024/01/30 00:34:15;;;;;;;10.80;5.57;;;;;;;;;;6151625;23;20023;-79
2024/01/30 00:37:04;;;;;;;7.10;4.43;;;;;;;;;;6153225;23;20027;-79
2024/01/30 00:39:52;;;;;;;8.73;5.07;;;;;;;;;;6173295;23;20311;-79
2024/01/30 00:42:38;;;;;;;7.20;4.50;;;;;;;;;;6172197;23;20017;-78
2024/01/30 00:45:28;;;;;;;9.27;4.82;;;;;;;;;;6147658;23;20021;-78
2024/01/30 00:48:14;;;;;;;8.90;4.40;;;;;;;;;;6173570;23;20032;-79
2024/01/30 00:50:59;;;;;;;7.68;4.95;;;;;;;;;;6174226;23;20017;-80
2024/01/30 00:53:48;;;;;;;10.10;5.90;;;;;;;;;;6175445;23;20017;-79
2024/01/30 00:56:33;;;;;;;7.78;4.70;;;;;;;;;;6154803;23;20548;-79
2024/01/30 00:59:19;;;;;;;9.18;5.00;;;;;;;;;;6175200;23;20330;-79
2024/01/30 01:02:06;;;;;;;8.80;4.43;;;;;;;;;;6175201;23;20048;-79
2024/01/30 01:04:57;;;;;;;9.38;4.07;;;;;;;;;;6175152;23;20025;-79
2024/01/30 01:07:43;;;;;;;5.43;4.45;;;;;;;;;;6155530;23;20017;-79
2024/01/30 01:10:29;;;;;;;11.50;5.25;;;;;;;;;;6153922;23;20076;-79
2024/01/30 01:13:17;;;;;;;8.75;4.25;;;;;;;;;;6153868;23;20024;-79
2024/01/30 01:16:06;;;;;;;8.13;4.20;;;;;;;;;;6155241;23;20017;-78
2024/01/30 01:18:54;;;;;;;7.95;4.22;;;;;;;;;;6154523;23;20021;-79
2024/01/30 01:21:39;;;;;;;7.40;4.68;;;;;;;;;;6174939;23;20017;-79
2024/01/30 01:24:25;;;;;;;10.20;4.70;;;;;;;;;;6175248;23;20017;-79
2024/01/30 01:27:11;;;;;;;8.77;5.35;;;;;;;;;;6152716;23;20032;-79
2024/01/30 01:29:57;;;;;;;5.88;3.70;;;;;;;;;;6154969;23;20021;-79
2024/01/30 01:32:49;;;;;;;8.05;4.13;;;;;;;;;;6152817;23;20013;-79
2024/01/30 01:35:36;;;;;;;6.22;4.22;;;;;;;;;;6154018;23;20025;-79
2024/01/30 01:38:21;;;;;;;9.45;4.68;;;;;;;;;;6196957;23;20025;-79
2024/01/30 01:41:07;;;;;;;9.38;4.45;;;;;;;;;;6197285;23;20021;-79
2024/01/30 01:43:53;;;;;;;8.45;4.25;;;;;;;;;;6196578;23;20326;-79
2024/01/30 01:46:39;;;;;;;8.15;4.15;;;;;;;;;;6154020;23;20017;-79
2024/01/30 01:49:26;;;;;;;6.75;3.78;;;;;;;;;;6174588;23;20029;-78
2024/01/30 01:52:13;;;;;;;9.93;3.80;;;;;;;;;;6195979;23;20021;-79
2024/01/30 01:54:59;;;;;;;7.10;3.90;;;;;;;;;;6153500;23;20021;-78
2024/01/30 01:57:46;;;;;;;6.70;4.22;;;;;;;;;;6154213;23;20343;-79
2024/01/30 02:00:32;;;;;;;9.55;4.63;;;;;;;;;;6175457;23;20021;-79
2024/01/30 02:03:21;;;;;;;9.18;4.32;;;;;;;;;;6173911;23;20405;-78
2024/01/30 02:06:07;;;;;;;10.43;4.30;;;;;;;;;;6153416;23;20023;-79
2024/01/30 02:08:54;;;;;;;7.45;3.92;;;;;;;;;;6173902;23;20028;-79
2024/01/30 02:11:40;;;;;;;6.68;3.42;;;;;;;;;;6197235;23;20017;-78
2024/01/30 02:14:29;;;;;;;9.88;3.90;;;;;;;;;;6165532;23;20013;-79
2024/01/30 02:17:15;;;;;;;9.07;3.42;;;;;;;;;;6174102;23;20025;-79
2024/01/30 02:20:01;;;;;;;7.75;4.05;;;;;;;;;;6175111;23;20327;-78
2024/01/30 02:22:49;;;;;;;6.82;3.90;;;;;;;;;;6153520;23;20342;-79
2024/01/30 02:25:37;;;;;;;7.82;4.15;;;;;;;;;;6153616;23;20021;-79
2024/01/30 02:28:25;;;;;;;7.07;4.25;;;;;;;;;;6154785;23;20017;-79
2024/01/30 02:31:11;;;;;;;8.45;5.05;;;;;;;;;;6153432;23;20343;-79
2024/01/30 02:33:57;;;;;;;9.73;4.70;;;;;;;;;;6152103;23;20017;-79
2024/01/30 02:36:46;;;;;;;8.55;4.68;;;;;;;;;;6152229;23;20021;-79
2024/01/30 02:39:34;;;;;;;9.70;4.50;;;;;;;;;;6154293;23;20336;-79
2024/01/30 02:42:20;;;;;;;5.18;3.50;;;;;;;;;;6174629;23;20017;-79
2024/01/30 02:45:06;;;;;;;10.65;4.85;;;;;;;;;;6152226;23;20356;-79
2024/01/30 02:47:53;;;;;;;6.25;4.05;;;;;;;;;;6152921;23;20027;-79
2024/01/30 02:50:44;;;;;;;9.00;4.35;;;;;;;;;;6154187;23;20021;-78
2024/01/30 02:53:30;;;;;;;8.10;4.10;;;;;;;;;;6173903;23;20458;-79
2024/01/30 02:56:17;;;;;;;7.53;3.83;;;;;;;;;;6172204;23;20025;-80
2024/01/30 02:59:03;;;;;;;10.25;5.05;;;;;;;;;;6173761;23;20328;-79
2024/01/30 03:01:48;;;;;;;7.35;4.38;;;;;;;;;;6152642;23;20028;-80
2024/01/30 03:04:34;;;;;;;8.80;3.92;;;;;;;;;;6174161;23;20017;-79
2024/01/30 03:07:20;;;;;;;8.52;4.20;;;;;;;;;;6167366;23;20021;-79
2024/01/30 03:10:06;;;;;;;8.02;4.38;;;;;;;;;;6152444;23;20024;-78
2024/01/30 03:15:50;;;;;;;10.27;4.78;;;;;;;;;;6158982;23;20021;-81
2024/01/30 03:18:38;;;;;;;8.68;4.88;;;;;;;;;;6123998;23;20040;-82
2024/01/30 03:21:27;;;;;;;13.00;4.88;;;;;;;;;;6146173;23;20017;-81
2024/01/30 03:24:12;;;;;;;7.18;3.92;;;;;;;;;;6165557;23;20027;-81
2024/01/30 03:26:58;;;;;;;10.23;5.10;;;;;;;;;;6159632;23;20022;-81
2024/01/30 03:29:44;;;;;;;8.23;5.28;;;;;;;;;;6124101;23;20024;-81
2024/01/30 03:32:34;;;;;;;7.80;4.95;;;;;;;;;;6143829;23;20029;-81
2024/01/30 03:35:22;;;;;;;10.18;4.40;;;;;;;;;;6121729;23;20017;-81
2024/01/30 03:38:10;;;;;;;11.50;5.90;;;;;;;;;;6166711;23;20028;-81
2024/01/30 03:40:57;;;;;;;8.23;4.38;;;;;;;;;;6143793;23;20037;-81
2024/01/30 03:43:45;;;;;;;8.82;4.68;;;;;;;;;;6123929;23;20753;-81
2024/01/30 03:46:33;;;;;;;6.00;3.80;;;;;;;;;;6161733;23;20017;-81
2024/01/30 03:49:20;;;;;;;7.82;5.00;;;;;;;;;;6146181;23;20022;-81
2024/01/30 03:52:06;;;;;;;10.80;5.95;;;;;;;;;;6147887;23;20025;-81
2024/01/30 03:54:54;;;;;;;5.63;4.05;;;;;;;;;;6168627;23;20024;-81
2024/01/30 03:57:41;;;;;;;6.82;4.15;;;;;;;;;;6146078;23;20017;-81
2024/01/30 04:00:27;;;;;;;8.70;3.78;;;;;;;;;;6147921;23;20021;-81
2024/01/30 04:03:13;;;;;;;6.95;4.07;;;;;;;;;;6146244;23;20018;-81
2024/01/30 04:06:00;;;;;;;8.50;3.85;;;;;;;;;;6165811;23;20025;-81
2024/01/30 04:08:49;;;;;;;8.55;4.45;;;;;;;;;;6148317;23;20443;-81
2024/01/30 04:11:38;;;;;;;10.88;5.03;;;;;;;;;;6168098;23;20025;-81
2024/01/30 04:14:24;;;;;;;11.18;5.30;;;;;;;;;;6129621;23;20020;-81
2024/01/30 04:17:12;;;;;;;9.73;4.72;;;;;;;;;;6145983;23;20517;-81
2024/01/30 04:19:58;;;;;;;7.45;4.47;;;;;;;;;;6166577;23;20017;-81
2024/01/30 04:22:46;;;;;;;7.80;4.93;;;;;;;;;;6145190;23;20017;-81
2024/01/30 04:25:32;;;;;;;6.00;3.53;;;;;;;;;;6166630;23;20021;-81
2024/01/30 04:28:23;;;;;;;7.53;4.30;;;;;;;;;;6169550;23;20017;-81
2024/01/30 04:31:09;;;;;;;6.13;3.35;;;;;;;;;;6168934;23;20025;-81
2024/01/30 04:33:54;;;;;;;8.88;4.35;;;;;;;;;;6149038;23;20017;-81
2024/01/30 04:36:41;;;;;;;7.40;3.92;;;;;;;;;;6164903;23;20017;-81
2024/01/30 04:39:28;;;;;;;5.88;3.83;;;;;;;;;;6169790;23;20029;-81
2024/01/30 04:42:17;;;;;;;10.52;4.43;;;;;;;;;;6169884;23;20025;-81
2024/01/30 04:45:03;;;;;;;5.20;3.28;;;;;;;;;;6168112;23;20023;-81
2024/01/30 04:47:50;;;;;;;6.18;3.70;;;;;;;;;;6148947;23;20458;-81
2024/01/30 04:50:36;;;;;;;11.65;3.88;;;;;;;;;;6170020;23;20029;-81
2024/01/30 04:53:24;;;;;;;5.25;3.50;;;;;;;;;;6169902;23;20024;-81
2024/01/30 04:56:11;;;;;;;5.07;3.08;;;;;;;;;;6167223;23;20021;-81
2024/01/30 04:58:57;;;;;;;5.65;2.88;;;;;;;;;;6171897;23;20021;-81
2024/01/30 05:01:45;;;;;;;5.00;3.20;;;;;;;;;;6170401;23;20026;-82
2024/01/30 05:04:31;;;;;;;4.68;2.78;;;;;;;;;;6169172;23;20025;-82
2024/01/30 05:07:17;;;;;;;7.28;3.88;;;;;;;;;;6169654;23;20021;-81
2024/01/30 05:10:06;;;;;;;6.90;3.28;;;;;;;;;;6128043;23;20021;-80
2024/01/30 05:12:53;;;;;;;7.07;3.88;;;;;;;;;;6148011;23;20053;-81
2024/01/30 05:15:39;;;;;;;9.77;3.60;;;;;;;;;;6159366;23;20029;-81
2024/01/30 05:18:27;;;;;;;7.60;3.33;;;;;;;;;;6148184;23;20025;-81
2024/01/30 05:21:13;;;;;;;5.38;3.40;;;;;;;;;;6125854;23;20021;-81
2024/01/30 05:23:58;;;;;;;8.88;3.83;;;;;;;;;;6147214;23;20617;-81
2024/01/30 05:26:48;;;;;;;6.78;3.92;;;;;;;;;;6162663;23;20414;-81
2024/01/30 05:29:35;;;;;;;4.90;3.15;;;;;;;;;;6149942;23;20017;-81
2024/01/30 05:32:21;;;;;;;7.00;3.10;;;;;;;;;;6170250;23;20025;-81
2024/01/30 05:35:07;;;;;;;7.35;3.55;;;;;;;;;;6127868;23;20022;-81
2024/01/30 05:37:56;;;;;;;4.30;2.70;;;;;;;;;;6150712;23;20025;-81
2024/01/30 05:40:45;;;;;;;5.00;2.83;;;;;;;;;;6150032;23;20022;-80
2024/01/30 05:43:31;;;;;;;8.55;3.47;;;;;;;;;;6171673;23;20021;-80
2024/01/30 05:46:19;;;;;;;6.68;3.55;;;;;;;;;;6128380;23;20022;-80
2024/01/30 05:49:05;;;;;;;7.07;4.05;;;;;;;;;;6149499;23;20018;-80
2024/01/30 05:51:54;;;;;;;6.57;4.47;;;;;;;;;;6128252;23;20021;-80
2024/01/30 05:54:40;;;;;;;7.63;3.70;;;;;;;;;;6149425;23;20018;-80
2024/01/30 05:57:26;;;;;;;4.47;3.25;;;;;;;;;;6151016;23;20025;-80
2024/01/30 06:00:13;;;;;;;6.20;3.00;;;;;;;;;;6149397;23;20462;-80
2024/01/30 06:03:03;;;;;;;8.60;4.18;;;;;;;;;;6149373;23;20029;-80
2024/01/30 06:05:49;;;;;;;9.57;4.00;;;;;;;;;;6147147;23;20013;-80
2024/01/30 06:08:35;;;;;;;13.50;4.38;;;;;;;;;;6148867;23;20017;-80
2024/01/30 06:11:21;;;;;;;13.73;5.78;;;;;;;;;;6149926;23;20028;-80
2024/01/30 06:14:10;;;;;;;7.57;4.30;;;;;;;;;;6126349;23;20024;-80
2024/01/30 06:16:56;;;;;;;7.30;3.63;;;;;;;;;;6149491;23;20021;-80
2024/01/30 06:19:46;;;;;;;8.23;4.43;;;;;;;;;;6169970;23;20476;-80
2024/01/30 06:22:32;;;;;;;6.60;3.75;;;;;;;;;;6128429;23;20017;-80
2024/01/30 06:25:20;;;;;;;4.07;3.10;;;;;;;;;;6127598;23;20014;-80
2024/01/30 06:28:09;;;;;;;6.70;3.47;;;;;;;;;;6170786;23;20041;-80
2024/01/30 06:30:57;;;;;;;9.32;3.85;;;;;;;;;;6128932;23;20018;-80
2024/01/30 06:33:43;;;;;;;9.55;3.65;;;;;;;;;;6149045;23;20331;-80
2024/01/30 06:36:30;;;;;;;5.53;3.20;;;;;;;;;;6167351;23;20018;-80
2024/01/30 06:39:19;;;;;;;6.15;3.83;;;;;;;;;;6171535;23;20018;-80
2024/01/30 06:42:08;;;;;;;5.53;3.30;;;;;;;;;;6171436;23;20327;-80
2024/01/30 06:44:59;;;;;;;7.15;3.05;;;;;;;;;;6149753;23;20017;-80
2024/01/30 06:47:48;;;;;;;7.82;3.83;;;;;;;;;;6162381;23;20474;-80
2024/01/30 06:50:34;;;;;;;6.68;3.42;;;;;;;;;;6126344;23;20021;-80
2024/01/30 06:53:24;;;;;;;6.78;3.47;;;;;;;;;;6171500;23;20017;-80
2024/01/30 06:56:12;;;;;;;10.63;4.60;;;;;;;;;;6147839;23;20017;-80
2024/01/30 06:58:59;;;;;;;8.77;4.68;;;;;;;;;;6129450;23;20027;-80
2024/01/30 07:01:45;;;;;;;10.60;4.28;;;;;;;;;;6129994;23;20017;-80
2024/01/30 07:04:31;;;;;;;7.90;4.05;;;;;;;;;;6150353;23;20495;-80
2024/01/30 07:07:20;;;;;;;12.35;4.78;;;;;;;;;;6164785;23;20034;-80
2024/01/30 07:10:10;;;;;;;9.48;4.70;;;;;;;;;;6152241;23;20028;-80
2024/01/30 07:12:58;;;;;;;7.85;4.32;;;;;;;;;;6151483;23;20454;-80
2024/01/30 07:15:47;;;;;;;8.82;4.47;;;;;;;;;;6130371;23;20013;-80
2024/01/30 07:18:36;;;;;;;5.38;4.13;;;;;;;;;;6172755;23;20021;-80
2024/01/30 07:21:27;;;;;;;8.52;4.03;;;;;;;;;;6129551;23;20458;-80
2024/01/30 07:24:16;;;;;;;10.45;4.50;;;;;;;;;;6130862;23;20022;-80
2024/01/30 07:27:06;;;;;;;10.00;5.10;;;;;;;;;;6172736;23;20024;-80
2024/01/30 07:29:54;;;;;;;8.98;4.28;;;;;;;;;;6130052;23;20028;-80
2024/01/30 07:32:40;;;;;;;9.73;4.72;;;;;;;;;;6173585;23;20021;-79
2024/01/30 07:35:26;;;;;;;9.25;5.07;;;;;;;;;;6129210;23;20022;-79
2024/01/30 07:38:17;;;;;;;8.38;5.03;;;;;;;;;;6150752;23;20021;-79
2024/01/30 07:41:02;;;;;;;9.02;4.70;;;;;;;;;;6129104;23;20017;-80
2024/01/30 07:43:50;;;;;;;10.70;5.82;;;;;;;;;;6130332;23;20025;-80
2024/01/30 07:46:38;;;;;;;11.32;5.32;;;;;;;;;;6129431;23;20024;-80
2024/01/30 07:49:26;;;;;;;11.20;4.97;;;;;;;;;;6128653;23;20028;-79
2024/01/30 07:52:12;;;;;;;9.60;5.80;;;;;;;;;;6129851;23;20044;-79
2024/01/30 07:54:58;;;;;;;13.70;6.00;;;;;;;;;;6152800;23;20017;-80
2024/01/30 07:57:49;;;;;;;9.20;4.05;;;;;;;;;;6127716;23;20032;-79
2024/01/30 08:00:37;;;;;;;11.00;4.85;;;;;;;;;;6174031;23;20351;-79
2024/01/30 08:03:23;;;;;;;10.13;5.43;;;;;;;;;;6132217;23;20488;-79
2024/01/30 08:06:11;;;;;;;11.63;5.70;;;;;;;;;;6151169;23;20043;-79
2024/01/30 08:08:59;;;;;;;10.20;5.70;;;;;;;;;;6129343;23;20028;-78
2024/01/30 08:11:45;;;;;;;9.07;4.57;;;;;;;;;;6142968;23;20029;-78
2024/01/30 08:14:33;;;;;;;14.18;5.35;;;;;;;;;;6121870;23;20474;-78
2024/01/30 08:17:20;;;;;;;11.30;5.97;;;;;;;;;;6123382;23;20497;-78
2024/01/30 08:20:10;;;;;;;8.00;4.60;;;;;;;;;;6126448;23;20032;-78
2024/01/30 08:23:00;;;;;;;11.05;5.20;;;;;;;;;;6146874;23;20021;-79
2024/01/30 08:25:48;;;;;;;11.90;5.20;;;;;;;;;;6144742;23;20028;-78
2024/01/30 08:28:37;;;;;;;8.50;5.30;;;;;;;;;;6145665;23;20664;-79
2024/01/30 08:31:22;;;;;;;9.50;5.82;;;;;;;;;;6125108;23;20017;-79
2024/01/30 08:34:10;;;;;;;10.20;5.47;;;;;;;;;;6145423;23;20021;-79
2024/01/30 08:36:56;;;;;;;7.82;5.07;;;;;;;;;;6166690;23;20030;-79
2024/01/30 08:39:42;;;;;;;13.88;5.35;;;;;;;;;;6167425;23;20021;-79
2024/01/30 08:42:30;;;;;;;12.68;5.60;;;;;;;;;;6124401;23;20022;-79
2024/01/30 08:45:19;;;;;;;11.80;6.13;;;;;;;;;;6144523;23;20037;-79
2024/01/30 08:48:05;;;;;;;9.40;5.45;;;;;;;;;;6145114;23;20017;-79
2024/01/30 08:50:55;;;;;;;8.30;4.95;;;;;;;;;;6166078;23;20021;-78
2024/01/30 08:53:41;;;;;;;11.20;4.50;;;;;;;;;;6141672;23;20021;-79
2024/01/30 08:56:27;;;;;;;8.38;5.05;;;;;;;;;;6140343;23;20021;-79
2024/01/30 08:59:15;;;;;;;10.75;5.07;;;;;;;;;;6143135;23;20021;-79
2024/01/30 09:02:00;;;;;;;8.18;5.10;;;;;;;;;;6122919;23;20025;-79
2024/01/30 09:04:49;;;;;;;10.70;5.40;;;;;;;;;;6119899;23;20022;-79
2024/01/30 09:07:36;;;;;;;8.50;4.63;;;;;;;;;;6134763;23;20299;-79
2024/01/30 09:10:24;;;;;;;7.95;4.28;;;;;;;;;;6165519;23;20018;-79
2024/01/30 09:13:10;;;;;;;10.00;4.40;;;;;;;;;;6126220;23;20017;-80
2024/01/30 09:15:58;;;;;;;11.77;5.07;;;;;;;;;;6193253;23;20018;-80
2024/01/30 09:18:44;;;;;;;8.57;5.32;;;;;;;;;;6129728;23;20026;-80
2024/01/30 09:21:30;;;;;;;13.18;5.70;;;;;;;;;;6129240;23;20355;-81
2024/01/30 09:24:17;;;;;;;8.52;5.07;;;;;;;;;;6150448;23;20018;-81
2024/01/30 09:27:04;;;;;;;10.05;5.45;;;;;;;;;;6143426;23;20014;-81
2024/01/30 09:29:50;;;;;;;10.82;5.88;;;;;;;;;;6150797;23;20022;-80
2024/01/30 09:32:36;;;;;;;10.65;6.03;;;;;;;;;;6129812;23;20025;-80
2024/01/30 09:35:22;;;;;;;12.95;5.40;;;;;;;;;;6172350;23;20022;-80
2024/01/30 09:38:08;;;;;;;8.40;5.18;;;;;;;;;;6150696;23;20332;-80
2024/01/30 09:41:00;;;;;;;10.40;6.20;;;;;;;;;;6150652;23;20477;-80
2024/01/30 09:43:49;;;;;;;11.82;6.15;;;;;;;;;;6129608;23;20017;-81
2024/01/30 09:46:35;;;;;;;10.48;5.18;;;;;;;;;;6165495;23;20017;-80
2024/01/30 09:49:23;;;;;;;9.30;5.80;;;;;;;;;;6129292;23;20339;-80
2024/01/30 09:52:09;;;;;;;9.80;5.70;;;;;;;;;;6128775;23;20014;-80
2024/01/30 09:54:56;;;;;;;9.70;5.95;;;;;;;;;;6149373;23;20414;-80
2024/01/30 09:57:43;;;;;;;12.32;6.88;;;;;;;;;;6128132;23;20017;-80
2024/01/30 10:00:29;;;;;;;10.00;6.18;;;;;;;;;;6128014;23;20021;-80
2024/01/30 10:03:19;;;;;;;11.10;6.78;;;;;;;;;;6170808;23;20022;-80
2024/01/30 10:06:06;;;;;;;11.05;6.90;;;;;;;;;;6122998;23;20018;-79
2024/01/30 10:08:52;;;;;;;12.65;7.32;;;;;;;;;;6106993;23;20026;-80
2024/01/30 10:11:38;;;;;;;14.27;7.07;;;;;;;;;;6126632;23;20013;-79
2024/01/30 10:14:26;;;;;;;11.07;6.35;;;;;;;;;;6127250;23;20022;-79
2024/01/30 10:17:13;;;;;;;13.88;6.78;;;;;;;;;;6126476;23;20319;-79
2024/01/30 10:19:58;;;;;;;11.63;6.25;;;;;;;;;;6127382;23;20340;-80
2024/01/30 10:22:45;;;;;;;9.90;6.18;;;;;;;;;;6145688;23;20207;-79
2024/01/30 10:25:32;;;;;;;9.05;5.95;;;;;;;;;;6147711;23;20478;-79
2024/01/30 10:28:18;;;;;;;8.65;5.97;;;;;;;;;;6147490;23;20021;-80
2024/01/30 10:31:05;;;;;;;10.38;6.05;;;;;;;;;;6148236;23;20458;-79
2024/01/30 10:33:52;;;;;;;10.52;5.82;;;;;;;;;;6126041;23;20025;-79
2024/01/30 10:36:41;;;;;;;9.00;5.75;;;;;;;;;;6126242;23;20013;-79
2024/01/30 10:39:30;;;;;;;10.15;5.72;;;;;;;;;;6146981;23;20017;-79
2024/01/30 10:42:18;;;;;;;11.30;5.38;;;;;;;;;;6147074;23;20029;-79
2024/01/30 10:45:08;;;;;;;9.63;5.97;;;;;;;;;;6125323;23;20021;-79
2024/01/30 10:47:59;;;;;;;10.65;6.32;;;;;;;;;;6126544;23;20018;-80
2024/01/30 10:50:47;;;;;;;9.18;5.75;;;;;;;;;;6169250;23;20018;-80
2024/01/30 10:53:33;;;;;;;8.57;5.38;;;;;;;;;;6125956;23;20022;-79
2024/01/30 10:56:21;;;;;;;12.75;7.30;;;;;;;;;;6125919;23;20018;-80
2024/01/30 10:59:10;;;;;;;10.13;5.65;;;;;;;;;;6146723;23;20021;-79
2024/01/30 11:01:57;;;;;;;14.07;6.68;;;;;;;;;;6147405;23;20021;-80
2024/01/30 11:04:47;;;;;;;13.75;6.82;;;;;;;;;;6126599;23;20022;-79
2024/01/30 11:07:33;;;;;;;12.95;7.60;;;;;;;;;;6127262;23;20018;-79
2024/01/30 11:10:19;;;;;;;12.05;7.45;;;;;;;;;;6128127;23;20024;-80
2024/01/30 11:13:27;;;;;;;11.68;7.07;;;;;;;;;;6121617;23;20030;-79
2024/01/30 11:16:14;;;;;;;9.82;7.00;;;;;;;;;;6096217;23;20022;-80
2024/01/30 11:19:02;;;;;;;14.23;7.45;;;;;;;;;;6117130;23;20018;-79
2024/01/30 11:21:53;;;;;;;10.98;7.55;;;;;;;;;;6096800;23;20425;-79
2024/01/30 11:24:41;;;;;;;13.50;6.75;;;;;;;;;;6107415;23;20046;-79
2024/01/30 11:27:27;;;;;;;9.98;6.15;;;;;;;;;;6110028;23;20017;-79
2024/01/30 11:30:23;;;;;;;8.25;5.88;;;;;;;;;;6139471;23;20026;-79
2024/01/30 11:33:12;;;;;;;10.27;6.80;;;;;;;;;;6117240;23;20017;-79
2024/01/30 11:35:59;;;;;;;11.32;6.90;;;;;;;;;;6116953;23;20450;-80
2024/01/30 11:38:46;;;;;;;11.57;7.05;;;;;;;;;;6096402;23;20328;-79
2024/01/30 11:41:32;;;;;;;12.20;6.30;;;;;;;;;;6118930;23;20021;-79
2024/01/30 11:44:18;;;;;;;11.68;6.88;;;;;;;;;;6118429;23;20018;-80
2024/01/30 11:47:09;;;;;;;12.25;6.85;;;;;;;;;;6098977;23;20018;-80
2024/01/30 11:49:55;;;;;;;10.30;6.55;;;;;;;;;;6097805;23;20014;-80
2024/01/30 11:52:41;;;;;;;7.78;5.70;;;;;;;;;;6118990;23;20356;-80
2024/01/30 11:55:31;;;;;;;13.10;6.47;;;;;;;;;;6139437;23;20022;-80
2024/01/30 11:58:17;;;;;;;11.20;6.80;;;;;;;;;;6098920;23;20331;-79
2024/01/30 12:01:03;;;;;;;12.57;7.50;;;;;;;;;;6119044;23;20018;-79
2024/01/30 12:03:52;;;;;;;12.73;6.95;;;;;;;;;;6099641;23;20022;-80
2024/01/30 12:06:40;;;;;;;16.10;7.95;;;;;;;;;;6115281;23;20018;-80
2024/01/30 12:09:27;;;;;;;13.23;8.75;;;;;;;;;;6099378;23;20026;-80
2024/01/30 12:12:14;;;;;;;12.23;7.32;;;;;;;;;;6099575;23;20025;-80
2024/01/30 12:15:01;;;;;;;13.27;6.97;;;;;;;;;;6118865;23;20022;-80
2024/01/30 12:17:47;;;;;;;13.05;6.97;;;;;;;;;;6132079;23;20018;-80
2024/01/30 12:20:32;;;;;;;10.55;6.95;;;;;;;;;;6099155;23;20492;-79
2024/01/30 12:23:20;;;;;;;13.32;8.40;;;;;;;;;;6098959;23;20026;-80
2024/01/30 12:26:07;;;;;;;13.32;8.27;;;;;;;;;;6119951;23;20207;-80
2024/01/30 12:28:57;;;;;;;14.23;8.25;;;;;;;;;;6141842;23;20018;-79
2024/01/30 12:31:44;;;;;;;16.95;9.02;;;;;;;;;;6120049;23;20022;-80
2024/01/30 12:34:30;;;;;;;14.68;8.30;;;;;;;;;;6118595;23;20018;-79
2024/01/30 12:37:19;;;;;;;18.00;8.68;;;;;;;;;;6098720;23;20014;-79
2024/01/30 12:40:09;;;;;;;15.40;9.35;;;;;;;;;;6119679;23;20022;-79
2024/01/30 12:42:55;;;;;;;17.65;9.77;;;;;;;;;;6119327;23;20018;-80
2024/01/30 12:45:42;;;;;;;11.93;7.97;;;;;;;;;;6118441;23;20018;-80
2024/01/30 12:48:29;;;;;;;14.80;7.82;;;;;;;;;;6080010;23;20018;-79
2024/01/30 12:51:15;;;;;;;16.38;8.15;;;;;;;;;;6100191;23;20025;-80
2024/01/30 12:54:05;;;;;;;13.50;7.28;;;;;;;;;;6120926;23;20022;-79
2024/01/30 12:56:51;;;;;;;;;;;;;;;;;;6101364;23;20462;-80
2024/01/30 12:59:37;;;;;;;13.93;7.43;;;;;;;;;;6121754;23;19927;-80
2024/01/30 13:02:26;;;;;;;11.88;7.50;;;;;;;;;;6101107;23;20025;-80
2024/01/30 13:05:12;;;;;;;12.27;6.85;;;;;;;;;;6101347;23;20017;-80
2024/01/30 13:08:00;;;;;;;13.18;8.50;;;;;;;;;;6101046;23;20018;-80
2024/01/30 13:10:46;;;;;;;13.77;6.82;;;;;;;;;;6121092;23;20026;-80
2024/01/30 13:13:32;;;;;;;12.82;7.72;;;;;;;;;;6099727;23;20026;-80
2024/01/30 13:16:18;;;;;;;11.23;7.65;;;;;;;;;;6121018;23;20024;-80
2024/01/30 13:19:05;;;;;;;12.30;8.02;;;;;;;;;;6099776;23;20017;-80
2024/01/30 13:21:51;;;;;;;12.55;7.55;;;;;;;;;;6121358;23;20018;-80
2024/01/30 13:24:37;;;;;;;12.57;7.10;;;;;;;;;;6141957;23;20371;-80
2024/01/30 13:27:23;;;;;;;12.30;7.65;;;;;;;;;;6100033;23;20018;-80
2024/01/30 13:30:12;;;;;;;11.18;7.68;;;;;;;;;;6119813;23;20021;-80
2024/01/30 13:32:58;;;;;;;12.65;7.43;;;;;;;;;;6120238;23;20034;-80
2024/01/30 13:35:45;;;;;;;15.65;8.32;;;;;;;;;;6099397;23;20018;-80
2024/01/30 13:38:31;;;;;;;13.32;7.95;;;;;;;;;;6120538;23;20454;-80
2024/01/30 13:41:21;;;;;;;12.80;7.97;;;;;;;;;;6100550;23;20022;-79
2024/01/30 13:44:06;;;;;;;11.02;7.60;;;;;;;;;;6118662;23;20018;-80
2024/01/30 13:46:53;;;;;;;12.02;7.30;;;;;;;;;;6099768;23;20018;-81
2024/01/30 13:49:41;;;;;;;14.38;7.57;;;;;;;;;;6119736;23;20014;-80
2024/01/30 13:52:28;;;;;;;15.38;8.27;;;;;;;;;;6100073;23;20459;-80
2024/01/30 13:55:14;;;;;;;10.63;6.75;;;;;;;;;;6119629;23;20332;-80
2024/01/30 13:58:01;;;;;;;15.48;7.63;;;;;;;;;;6100108;23;20336;-80
2024/01/30 14:00:47;;;;;;;14.15;7.75;;;;;;;;;;6143190;23;20018;-80
2024/01/30 14:03:33;;;;;;;10.38;7.15;;;;;;;;;;6120214;23;20650;-79
2024/01/30 14:06:45;;;;;;;12.77;7.78;;;;;;;;;;6119547;23;20022;-81
2024/01/30 14:09:32;;;;;;;15.00;8.10;;;;;;;;;;6099941;23;20018;-80
2024/01/30 14:12:18;;;;;;;13.60;8.20;;;;;;;;;;6120352;23;20030;-81
2024/01/30 14:15:04;;;;;;;15.20;8.18;;;;;;;;;;6118994;23;20022;-80
2024/01/30 14:17:50;;;;;;;14.85;7.63;;;;;;;;;;6099774;23;20018;-80
2024/01/30 14:20:38;;;;;;;12.77;7.88;;;;;;;;;;6099152;23;20026;-81
2024/01/30 14:23:24;;;;;;;11.70;7.18;;;;;;;;;;6101917;23;20025;-80
2024/01/30 14:26:12;;;;;;;14.35;8.55;;;;;;;;;;6099888;23;20018;-81
2024/01/30 14:28:58;;;;;;;12.82;8.07;;;;;;;;;;6120089;23;20026;-80
2024/01/30 14:31:44;;;;;;;16.13;8.25;;;;;;;;;;6099375;23;20022;-80
2024/01/30 14:34:30;;;;;;;15.00;9.13;;;;;;;;;;6120105;23;20022;-81
2024/01/30 14:37:16;;;;;;;13.75;8.48;;;;;;;;;;6133806;23;20018;-80
2024/01/30 14:40:03;;;;;;;13.98;8.57;;;;;;;;;;6141818;23;20017;-80
2024/01/30 14:42:50;;;;;;;17.42;9.18;;;;;;;;;;6119820;23;20022;-80
2024/01/30 14:45:36;;;;;;;18.58;9.15;;;;;;;;;;6119980;23;20018;-81
2024/01/30 14:48:24;;;;;;;13.82;8.20;;;;;;;;;;6119901;23;20018;-80
2024/01/30 14:51:15;;;;;;;11.65;7.55;;;;;;;;;;6141934;23;20021;-80
2024/01/30 14:54:03;;;;;;;18.13;8.88;;;;;;;;;;6141741;23;20026;-79
2024/01/30 14:56:49;;;;;;;15.27;8.80;;;;;;;;;;6119760;23;20018;-80
2024/01/30 14:59:36;;;;;;;16.60;8.65;;;;;;;;;;6119537;23;20014;-80
2024/01/30 15:02:25;;;;;;;19.35;10.90;;;;;;;;;;6140957;23;20018;-80
2024/01/30 15:05:11;;;;;;;24.05;11.63;;;;;;;;;;6120928;23;20028;-80
2024/01/30 15:07:57;;;;;;;17.55;9.57;;;;;;;;;;6120903;23;20024;-80
2024/01/30 15:10:45;;;;;;;13.43;9.15;;;;;;;;;;6121166;23;20018;-80
2024/01/30 15:13:31;;;;;;;20.50;10.65;;;;;;;;;;6117065;23;20022;-79
2024/01/30 15:16:18;;;;;;;14.75;8.32;;;;;;;;;;6133467;23;20025;-79
2024/01/30 15:19:05;;;;;;;16.08;9.25;;;;;;;;;;6138104;23;20014;-79
2024/01/30 15:21:53;;;;;;;12.73;8.40;;;;;;;;;;6137479;23;20113;-79
2024/01/30 15:24:42;;;;;;;16.60;8.85;;;;;;;;;;6136635;23;20018;-79
2024/01/30 15:27:28;;;;;;;18.55;9.75;;;;;;;;;;6130808;23;20021;-80
2024/01/30 15:30:16;;;;;;;20.23;10.45;;;;;;;;;;6115939;23;20018;-79
2024/01/30 15:33:04;;;;;;;16.48;10.38;;;;;;;;;;6113318;23;20477;-79
2024/01/30 15:35:50;;;;;;;16.90;9.38;;;;;;;;;;6133239;23;20032;-79
2024/01/30 15:38:36;;;;;;;20.55;10.75;;;;;;;;;;6137726;23;20017;-79
2024/01/30 15:41:22;;;;;;;22.38;11.02;;;;;;;;;;6137215;23;20028;-79
2024/01/30 15:44:09;;;;;;;17.30;10.38;;;;;;;;;;6115568;23;20032;-80
2024/01/30 15:46:55;;;;;;;15.95;9.55;;;;;;;;;;6130737;23;20028;-79
2024/01/30 15:49:45;;;;;;;13.55;8.38;;;;;;;;;;6137511;23;20032;-79
2024/01/30 15:52:31;;;;;;;14.00;8.82;;;;;;;;;;6143066;23;20458;-80
2024/01/30 15:55:20;;;;;;;17.17;9.90;;;;;;;;;;6141912;23;20018;-79
2024/01/30 15:58:06;;;;;;;20.70;10.82;;;;;;;;;;6142927;23;20022;-80
2024/01/30 16:00:53;;;;;;;24.58;10.52;;;;;;;;;;6142217;23;20028;-80
2024/01/30 16:03:39;;;;;;;18.38;9.43;;;;;;;;;;6140865;23;20025;-80
2024/01/30 16:06:29;;;;;;;17.30;8.75;;;;;;;;;;6119917;23;20018;-80
2024/01/30 16:09:18;;;;;;;16.25;10.00;;;;;;;;;;6142464;23;20018;-80
2024/01/30 16:12:26;;;;;;;17.27;10.52;;;;;;;;;;6140342;23;20032;-80
2024/01/30 16:15:33;;;;;;;18.20;9.18;;;;;;;;;;6136682;23;20029;-80
2024/01/30 16:18:39;;;;;;;16.70;10.45;;;;;;;;;;6141758;23;20018;-80
2024/01/30 16:21:46;;;;;;;15.82;9.50;;;;;;;;;;6141678;23;20032;-80
2024/01/30 16:24:51;;;;;;;17.88;10.80;;;;;;;;;;6138456;23;20022;-80
2024/01/30 16:28:02;;;;;;;18.70;10.00;;;;;;;;;;6143498;23;20028;-80
2024/01/30 16:31:18;;;;;;;20.40;11.00;;;;;;;;;;6144599;23;20032;-80
2024/01/30 16:34:30;;;;;;;15.95;9.98;;;;;;;;;;6141134;23;20489;-79
2024/01/30 16:37:43;;;;;;;20.75;11.40;;;;;;;;;;6143332;23;20018;-80
2024/01/30 16:40:54;;;;;;;19.70;11.23;;;;;;;;;;6140738;23;20082;-79